createdAt,value
2023-05-13T00:00:45.393Z,144
2023-05-13T00:01:52.384Z,146
2023-05-13T00:03:04.631Z,148
2023-05-13T00:04:14.461Z,143
2023-05-13T00:05:21.354Z,142
2023-05-13T00:06:31.054Z,142
2023-05-13T00:07:38.016Z,134
2023-05-13T00:08:45.084Z,136
2023-05-13T00:09:52.045Z,129
2023-05-13T00:10:59.774Z,132
2023-05-13T00:12:06.713Z,133
2023-05-13T00:13:13.668Z,126
2023-05-13T00:14:23.603Z,124
2023-05-13T00:15:30.680Z,127
2023-05-13T00:16:37.661Z,126
2023-05-13T00:17:50.082Z,123
2023-05-13T00:18:57.057Z,123
2023-05-13T00:20:03.928Z,121
2023-05-13T00:21:16.315Z,122
2023-05-13T00:22:32.311Z,121
2023-05-13T00:23:39.326Z,123
2023-05-13T00:24:51.488Z,124
2023-05-13T00:25:59.632Z,124
2023-05-13T00:27:11.447Z,119
2023-05-13T00:28:18.523Z,123
2023-05-13T00:29:25.466Z,122
2023-05-13T00:30:32.820Z,124
2023-05-13T00:31:39.873Z,123
2023-05-13T00:33:04.685Z,121
2023-05-13T00:34:14.448Z,121
2023-05-13T00:35:24.390Z,119
2023-05-13T00:36:31.342Z,122
2023-05-13T00:37:41.339Z,123
2023-05-13T00:38:50.972Z,124
2023-05-13T00:39:58.194Z,121
2023-05-13T00:41:05.508Z,125
2023-05-13T00:42:15.623Z,125
2023-05-13T00:43:22.657Z,124
2023-05-13T00:44:30.329Z,122
2023-05-13T00:45:37.448Z,126
2023-05-13T00:46:44.364Z,121
2023-05-13T00:47:51.674Z,120
2023-05-13T00:48:58.966Z,124
2023-05-13T00:50:06.409Z,118
2023-05-13T00:51:14.280Z,123
2023-05-13T00:52:21.947Z,122
2023-05-13T00:53:29.480Z,125
2023-05-13T00:54:36.664Z,120
2023-05-13T00:55:43.665Z,124
2023-05-13T00:56:53.584Z,120
2023-05-13T00:58:00.593Z,121
2023-05-13T00:59:07.569Z,124
2023-05-13T01:00:14.549Z,119
2023-05-13T01:01:29.679Z,127
2023-05-13T01:02:47.551Z,120
2023-05-13T01:03:54.522Z,118
2023-05-13T01:05:14.706Z,115
2023-05-13T01:06:26.975Z,124
2023-05-13T01:07:40.078Z,123
2023-05-13T01:08:57.135Z,123
2023-05-13T01:10:07.110Z,118
2023-05-13T01:11:19.123Z,123
2023-05-13T01:12:28.858Z,118
2023-05-13T01:13:44.027Z,123
2023-05-13T01:14:53.252Z,116
2023-05-13T01:16:07.489Z,120
2023-05-13T01:17:27.690Z,123
2023-05-13T01:18:40.853Z,119
2023-05-13T01:19:50.311Z,118
2023-05-13T01:20:58.189Z,121
2023-05-13T01:22:07.320Z,120
2023-05-13T01:23:17.294Z,123
2023-05-13T01:24:26.459Z,114
2023-05-13T01:25:47.186Z,120
2023-05-13T01:27:17.453Z,114
2023-05-13T01:28:25.160Z,119
2023-05-13T01:29:32.213Z,119
2023-05-13T01:30:39.957Z,120
2023-05-13T01:31:46.972Z,118
2023-05-13T01:32:53.867Z,120
2023-05-13T01:34:03.785Z,116
2023-05-13T01:35:10.756Z,118
2023-05-13T01:36:18.340Z,121
2023-05-13T01:37:36.370Z,115
2023-05-13T01:38:43.643Z,118
2023-05-13T01:39:50.536Z,115
2023-05-13T01:40:57.781Z,120
2023-05-13T01:42:04.824Z,116
2023-05-13T01:43:11.724Z,114
2023-05-13T01:44:18.724Z,114
2023-05-13T01:45:37.072Z,115
2023-05-13T01:46:47.528Z,116
2023-05-13T01:47:57.034Z,116
2023-05-13T01:49:04.497Z,117
2023-05-13T01:50:11.521Z,113
2023-05-13T01:51:18.344Z,114
2023-05-13T01:52:25.973Z,112
2023-05-13T01:53:33.192Z,110
2023-05-13T01:54:47.079Z,114
2023-05-13T01:55:56.005Z,110
2023-05-13T01:57:03.039Z,109
2023-05-13T01:58:12.862Z,115
2023-05-13T01:59:22.469Z,110
2023-05-13T02:00:29.548Z,112
2023-05-13T02:01:39.699Z,117
2023-05-13T02:02:47.288Z,115
2023-05-13T02:03:54.128Z,113
2023-05-13T02:05:01.075Z,116
2023-05-13T02:06:08.057Z,119
2023-05-13T02:07:15.626Z,124
2023-05-13T02:08:25.783Z,117
2023-05-13T02:09:32.846Z,121
2023-05-13T02:10:42.935Z,114
2023-05-13T02:11:50.475Z,122
2023-05-13T02:12:57.377Z,121
2023-05-13T02:14:04.620Z,118
2023-05-13T02:15:11.546Z,120
2023-05-13T02:16:18.729Z,120
2023-05-13T02:17:25.930Z,120
2023-05-13T02:18:32.656Z,121
2023-05-13T02:19:42.558Z,120
2023-05-13T02:20:52.624Z,118
2023-05-13T02:22:06.300Z,121
2023-05-13T02:23:13.251Z,123
2023-05-13T02:24:20.316Z,120
2023-05-13T02:25:27.241Z,114
2023-05-13T02:26:35.698Z,121
2023-05-13T02:27:45.203Z,114
2023-05-13T02:28:52.960Z,118
2023-05-13T02:30:04.191Z,119
2023-05-13T02:31:17.277Z,116
2023-05-13T02:32:37.151Z,119
2023-05-13T02:33:44.908Z,120
2023-05-13T02:34:51.944Z,113
2023-05-13T02:35:59.873Z,118
2023-05-13T02:37:07.120Z,111
2023-05-13T02:38:14.141Z,113
2023-05-13T02:39:28.953Z,118
2023-05-13T02:40:40.485Z,121
2023-05-13T02:41:47.558Z,120
2023-05-13T02:43:04.057Z,121
2023-05-13T02:44:24.525Z,117
2023-05-13T02:45:35.629Z,121
2023-05-13T02:46:46.855Z,121
2023-05-13T02:48:02.424Z,121
2023-05-13T02:49:09.389Z,116
2023-05-13T02:50:19.218Z,125
2023-05-13T02:51:34.150Z,121
2023-05-13T02:52:43.835Z,124
2023-05-13T02:53:53.858Z,122
2023-05-13T02:55:11.246Z,115
2023-05-13T02:56:18.300Z,122
2023-05-13T02:57:25.751Z,114
2023-05-13T02:58:39.889Z,120
2023-05-13T02:59:46.957Z,123
2023-05-13T03:00:54.073Z,114
2023-05-13T03:02:07.301Z,115
2023-05-13T03:03:19.198Z,115
2023-05-13T03:04:29.183Z,111
2023-05-13T03:05:38.956Z,115
2023-05-13T03:06:45.940Z,114
2023-05-13T03:07:52.964Z,118
2023-05-13T03:09:00.047Z,121
2023-05-13T03:10:08.892Z,119
2023-05-13T03:11:35.566Z,116
2023-05-13T03:12:42.868Z,121
2023-05-13T03:13:50.431Z,118
2023-05-13T03:15:10.598Z,118
2023-05-13T03:16:21.400Z,120
2023-05-13T03:17:28.552Z,118
2023-05-13T03:18:52.462Z,122
2023-05-13T03:20:06.718Z,116
2023-05-13T03:21:14.068Z,118
2023-05-13T03:22:24.124Z,119
2023-05-13T03:23:31.939Z,119
2023-05-13T03:24:39.586Z,116
2023-05-13T03:25:57.575Z,116
2023-05-13T03:27:14.387Z,116
2023-05-13T03:28:31.439Z,122
2023-05-13T03:29:51.149Z,121
2023-05-13T03:31:01.674Z,119
2023-05-13T03:32:08.729Z,114
2023-05-13T03:33:21.994Z,114
2023-05-13T03:34:29.333Z,118
2023-05-13T03:35:36.884Z,115
2023-05-13T03:36:43.850Z,116
2023-05-13T03:37:53.812Z,120
2023-05-13T03:39:01.205Z,115
2023-05-13T03:40:08.287Z,122
2023-05-13T03:41:15.463Z,115
2023-05-13T03:42:22.584Z,115
2023-05-13T03:43:29.663Z,117
2023-05-13T03:44:36.997Z,115
2023-05-13T03:45:44.069Z,116
2023-05-13T03:46:54.308Z,119
2023-05-13T03:48:01.319Z,120
2023-05-13T03:49:11.202Z,120
2023-05-13T03:50:18.248Z,116
2023-05-13T03:51:26.150Z,115
2023-05-13T03:52:33.091Z,113
2023-05-13T03:53:42.291Z,116
2023-05-13T03:54:49.305Z,115
2023-05-13T03:56:07.244Z,115
2023-05-13T03:57:14.722Z,112
2023-05-13T03:58:38.817Z,113
2023-05-13T03:59:48.697Z,111
2023-05-13T04:00:56.179Z,114
2023-05-13T04:02:03.771Z,115
2023-05-13T04:03:10.831Z,114
2023-05-13T04:04:21.480Z,118
2023-05-13T04:05:28.659Z,117
2023-05-13T04:06:42.813Z,114
2023-05-13T04:07:58.296Z,115
2023-05-13T04:09:05.258Z,117
2023-05-13T04:10:15.353Z,120
2023-05-13T04:11:22.503Z,117
2023-05-13T04:12:29.627Z,120
2023-05-13T04:13:37.060Z,115
2023-05-13T04:14:44.386Z,115
2023-05-13T04:16:00.573Z,119
2023-05-13T04:17:19.248Z,117
2023-05-13T04:18:33.957Z,118
2023-05-13T04:19:46.240Z,121
2023-05-13T04:20:53.205Z,118
2023-05-13T04:22:00.353Z,117
2023-05-13T04:23:13.726Z,119
2023-05-13T04:24:20.733Z,119
2023-05-13T04:25:43.219Z,119
2023-05-13T04:26:53.572Z,118
2023-05-13T04:28:10.232Z,113
2023-05-13T04:29:28.000Z,117
2023-05-13T04:30:50.167Z,118
2023-05-13T04:31:58.022Z,114
2023-05-13T04:33:22.840Z,120
2023-05-13T04:34:51.635Z,116
2023-05-13T04:36:10.510Z,117
2023-05-13T04:37:19.957Z,116
2023-05-13T04:38:26.930Z,112
2023-05-13T04:39:34.740Z,113
2023-05-13T04:40:57.130Z,122
2023-05-13T04:42:11.274Z,115
2023-05-13T04:43:18.615Z,112
2023-05-13T04:44:37.038Z,121
2023-05-13T04:45:44.097Z,121
2023-05-13T04:46:57.091Z,119
2023-05-13T04:48:14.668Z,116
2023-05-13T04:49:21.616Z,116
2023-05-13T04:50:28.883Z,113
2023-05-13T04:51:35.935Z,117
2023-05-13T04:52:49.590Z,118
2023-05-13T04:53:59.607Z,120
2023-05-13T04:55:06.655Z,120
2023-05-13T04:56:18.440Z,122
2023-05-13T04:57:29.428Z,116
2023-05-13T04:58:36.416Z,119
2023-05-13T04:59:43.535Z,112
2023-05-13T05:01:08.799Z,121
2023-05-13T05:02:15.849Z,117
2023-05-13T05:03:23.239Z,115
2023-05-13T05:04:35.335Z,120
2023-05-13T05:05:42.808Z,119
2023-05-13T05:06:52.529Z,123
2023-05-13T05:07:59.698Z,117
2023-05-13T05:09:06.779Z,117
2023-05-13T05:10:14.585Z,115
2023-05-13T05:11:21.644Z,115
2023-05-13T05:12:29.319Z,113
2023-05-13T05:13:36.355Z,121
2023-05-13T05:14:43.472Z,118
2023-05-13T05:15:50.520Z,114
2023-05-13T05:16:57.464Z,119
2023-05-13T05:18:04.601Z,117
2023-05-13T05:19:11.611Z,119
2023-05-13T05:20:21.643Z,115
2023-05-13T05:21:28.707Z,116
2023-05-13T05:22:35.788Z,115
2023-05-13T05:23:42.808Z,123
2023-05-13T05:24:55.998Z,122
2023-05-13T05:26:10.885Z,113
2023-05-13T05:27:10.178Z,120
2023-05-13T05:28:20.047Z,116
2023-05-13T05:29:27.515Z,120
2023-05-13T05:30:34.529Z,119
2023-05-13T05:31:41.589Z,116
2023-05-13T05:33:04.312Z,111
2023-05-13T05:34:21.379Z,112
2023-05-13T05:35:35.312Z,116
2023-05-13T05:36:58.964Z,119
2023-05-13T05:38:24.792Z,114
2023-05-13T05:41:02.482Z,122
2023-05-13T05:42:11.550Z,120
2023-05-13T05:43:18.539Z,117
2023-05-13T05:44:25.809Z,112
2023-05-13T05:45:35.745Z,114
2023-05-13T05:46:56.169Z,114
2023-05-13T05:48:03.535Z,116
2023-05-13T05:49:16.803Z,117
2023-05-13T05:50:26.984Z,114
2023-05-13T05:51:40.896Z,119
2023-05-13T05:53:01.583Z,109
2023-05-13T05:54:09.193Z,109
2023-05-13T05:55:18.182Z,114
2023-05-13T05:56:50.019Z,116
2023-05-13T05:57:57.012Z,115
2023-05-13T05:59:04.651Z,118
2023-05-13T06:00:23.245Z,113
2023-05-13T06:01:30.390Z,119
2023-05-13T06:02:37.484Z,117
2023-05-13T06:03:44.428Z,116
2023-05-13T06:04:51.521Z,120
2023-05-13T06:06:03.370Z,116
2023-05-13T06:07:10.723Z,110
2023-05-13T06:08:18.272Z,115
2023-05-13T06:09:28.248Z,108
2023-05-13T06:11:02.129Z,110
2023-05-13T06:12:16.483Z,108
2023-05-13T06:13:24.106Z,107
2023-05-13T06:14:34.185Z,104
2023-05-13T06:15:46.621Z,106
2023-05-13T06:16:55.662Z,93
2023-05-13T06:18:00.930Z,95
2023-05-13T06:19:08.088Z,99
2023-05-13T06:20:17.287Z,97
2023-05-13T06:21:27.354Z,98
2023-05-13T06:22:45.478Z,91
2023-05-13T06:23:53.234Z,89
2023-05-13T06:25:00.414Z,90
2023-05-13T06:26:07.492Z,86
2023-05-13T06:27:17.211Z,85
2023-05-13T06:28:24.859Z,80
2023-05-13T06:29:34.591Z,83
2023-05-13T06:30:45.050Z,89
2023-05-13T06:31:52.606Z,86
2023-05-13T06:33:01.916Z,82
2023-05-13T06:34:21.016Z,90
2023-05-13T06:35:28.379Z,82
2023-05-13T06:36:36.259Z,84
2023-05-13T06:37:44.798Z,75
2023-05-13T06:38:54.934Z,72
2023-05-13T06:40:02.037Z,77
2023-05-13T06:41:12.129Z,76
2023-05-13T06:42:32.890Z,76
2023-05-13T06:43:42.879Z,79
2023-05-13T06:44:59.898Z,71
2023-05-13T06:46:15.990Z,66
2023-05-13T06:47:25.814Z,68
2023-05-13T06:48:33.731Z,62
2023-05-13T06:49:41.147Z,61
2023-05-13T06:50:48.217Z,60
2023-05-13T06:51:55.282Z,57
2023-05-13T06:53:02.353Z,52
2023-05-13T06:54:10.330Z,47
2023-05-13T06:55:34.045Z,48
2023-05-13T06:56:51.988Z,51
2023-05-13T06:58:01.959Z,51
2023-05-13T06:59:09.132Z,45
2023-05-13T07:00:16.120Z,50
2023-05-13T07:01:23.300Z,48
2023-05-13T07:02:38.764Z,45
2023-05-13T07:03:50.774Z,35
2023-05-13T07:04:58.285Z,38
2023-05-13T07:06:05.357Z,42
2023-05-13T07:07:15.224Z,41
2023-05-13T07:08:25.197Z,43
2023-05-13T07:09:33.257Z,40
2023-05-13T07:10:45.090Z,31
2023-05-13T07:12:07.923Z,31
2023-05-13T07:13:15.631Z,32
2023-05-13T07:14:23.044Z,26
2023-05-13T07:15:30.079Z,26
2023-05-13T07:16:51.029Z,31
2023-05-13T07:17:58.214Z,31
2023-05-13T07:19:06.344Z,28
2023-05-13T07:20:18.443Z,25
2023-05-13T07:21:26.083Z,28
2023-05-13T07:22:34.062Z,25
2023-05-13T07:23:43.068Z,32
2023-05-13T07:24:48.463Z,39
2023-05-13T07:25:55.430Z,36
2023-05-13T07:27:14.242Z,27
2023-05-13T07:28:21.620Z,26
2023-05-13T07:29:41.717Z,31
2023-05-13T07:30:48.934Z,26
2023-05-13T07:32:03.392Z,25
2023-05-13T07:33:20.598Z,25
2023-05-13T07:34:30.902Z,25
2023-05-13T07:36:03.725Z,25
2023-05-13T07:37:20.170Z,30
2023-05-13T07:38:27.680Z,30
2023-05-13T07:39:44.716Z,41
2023-05-13T07:40:58.683Z,25
2023-05-13T07:42:10.564Z,30
2023-05-13T07:43:39.774Z,25
2023-05-13T07:44:49.402Z,48
2023-05-13T07:46:10.440Z,40
2023-05-13T07:47:20.052Z,31
2023-05-13T07:48:39.190Z,41
2023-05-13T07:49:50.512Z,36
2023-05-13T07:51:06.422Z,27
2023-05-13T07:52:18.626Z,25
2023-05-13T07:53:26.269Z,29
2023-05-13T07:54:33.311Z,50
2023-05-13T07:56:05.903Z,41
2023-05-13T07:57:15.917Z,57
2023-05-13T07:58:34.434Z,39
2023-05-13T07:59:39.594Z,34
2023-05-13T08:00:52.874Z,28
2023-05-13T08:02:02.843Z,32
2023-05-13T08:03:24.378Z,25
2023-05-13T08:04:47.315Z,41
2023-05-13T08:05:59.748Z,27
2023-05-13T08:07:07.098Z,36
2023-05-13T08:08:14.735Z,49
2023-05-13T08:09:22.057Z,33
2023-05-13T08:10:31.075Z,52
2023-05-13T08:11:39.506Z,25
2023-05-13T08:12:52.027Z,34
2023-05-13T08:14:05.691Z,28
2023-05-13T08:15:13.700Z,31
2023-05-13T08:16:23.018Z,28
2023-05-13T08:17:33.765Z,34
2023-05-13T08:18:42.580Z,41
2023-05-13T08:20:00.509Z,45
2023-05-13T08:21:10.497Z,34
2023-05-13T08:22:20.098Z,46
2023-05-13T08:23:47.784Z,44
2023-05-13T08:24:57.554Z,40
2023-05-13T08:26:15.368Z,30
2023-05-13T08:27:37.235Z,46
2023-05-13T08:28:48.054Z,36
2023-05-13T08:30:01.847Z,52
2023-05-13T08:31:09.814Z,26
2023-05-13T08:32:19.888Z,39
2023-05-13T08:33:29.688Z,35
2023-05-13T08:34:36.748Z,25
2023-05-13T08:35:54.187Z,49
2023-05-13T08:37:01.659Z,25
2023-05-13T08:38:08.681Z,36
2023-05-13T08:39:16.019Z,28
2023-05-13T08:40:23.309Z,25
2023-05-13T08:41:34.315Z,53
2023-05-13T08:42:41.474Z,64
2023-05-13T08:43:48.416Z,61
2023-05-13T08:44:55.436Z,47
2023-05-13T08:46:08.621Z,64
2023-05-13T08:47:21.431Z,37
2023-05-13T08:48:31.624Z,42
2023-05-13T08:49:38.871Z,25
2023-05-13T08:50:45.911Z,29
2023-05-13T08:51:52.969Z,25
2023-05-13T08:53:00.071Z,37
2023-05-13T08:54:07.989Z,35
2023-05-13T08:55:15.691Z,32
2023-05-13T08:56:24.806Z,39
2023-05-13T08:57:36.047Z,33
2023-05-13T08:58:54.791Z,28
2023-05-13T09:00:02.652Z,44
2023-05-13T09:01:10.094Z,25
2023-05-13T09:02:30.546Z,25
2023-05-13T09:03:37.955Z,25
2023-05-13T09:04:48.788Z,62
2023-05-13T09:05:55.742Z,53
2023-05-13T09:07:26.271Z,48
2023-05-13T09:08:38.158Z,41
2023-05-13T09:09:47.282Z,25
2023-05-13T09:10:55.101Z,27
2023-05-13T09:12:07.585Z,31
2023-05-13T09:13:18.692Z,32
2023-05-13T09:14:29.292Z,30
2023-05-13T09:15:54.939Z,26
2023-05-13T09:17:01.897Z,32
2023-05-13T09:18:19.344Z,39
2023-05-13T09:19:26.019Z,43
2023-05-13T09:20:49.798Z,51
2023-05-13T09:21:56.800Z,28
2023-05-13T09:23:11.966Z,35
2023-05-13T09:24:21.816Z,26
2023-05-13T09:25:29.284Z,31
2023-05-13T09:26:37.569Z,47
2023-05-13T09:27:44.463Z,33
2023-05-13T09:29:04.448Z,26
2023-05-13T09:30:20.864Z,31
2023-05-13T09:31:27.702Z,36
2023-05-13T09:32:37.892Z,39
2023-05-13T09:33:56.684Z,36
2023-05-13T09:35:18.086Z,35
2023-05-13T09:36:34.272Z,43
2023-05-13T09:37:44.871Z,37
2023-05-13T09:39:02.272Z,38
2023-05-13T09:40:11.332Z,26
2023-05-13T09:41:26.882Z,29
2023-05-13T09:42:41.404Z,34
2023-05-13T09:44:00.253Z,25
2023-05-13T09:45:15.673Z,35
2023-05-13T09:46:35.965Z,29
2023-05-13T09:47:42.925Z,44
2023-05-13T09:48:50.277Z,27
2023-05-13T09:50:08.000Z,29
2023-05-13T09:51:13.152Z,33
2023-05-13T09:52:29.273Z,30
2023-05-13T09:53:46.327Z,30
2023-05-13T09:54:53.727Z,36
2023-05-13T09:56:07.471Z,36
2023-05-13T09:57:14.558Z,27
2023-05-13T09:58:22.393Z,35
2023-05-13T09:59:32.165Z,27
2023-05-13T10:00:39.833Z,30
2023-05-13T10:01:51.450Z,25
2023-05-13T10:03:02.586Z,25
2023-05-13T10:04:13.106Z,36
2023-05-13T10:05:21.064Z,49
2023-05-13T10:06:30.762Z,25
2023-05-13T10:07:40.784Z,38
2023-05-13T10:09:05.588Z,32
2023-05-13T10:10:24.102Z,41
2023-05-13T10:11:36.791Z,33
2023-05-13T10:12:48.922Z,25
2023-05-13T10:13:56.028Z,30
2023-05-13T10:15:02.930Z,39
2023-05-13T10:16:11.748Z,44
2023-05-13T10:17:19.615Z,43
2023-05-13T10:18:29.824Z,46
2023-05-13T10:19:36.783Z,25
2023-05-13T10:20:44.868Z,44
2023-05-13T10:22:00.469Z,43
2023-05-13T10:23:14.376Z,35
2023-05-13T10:24:26.315Z,25
2023-05-13T10:25:33.646Z,37
2023-05-13T10:26:50.359Z,34
2023-05-13T10:27:57.646Z,41
2023-05-13T10:29:04.682Z,41
2023-05-13T10:30:17.628Z,35
2023-05-13T10:31:35.769Z,35
2023-05-13T10:32:42.886Z,44
2023-05-13T10:33:49.800Z,34
2023-05-13T10:34:56.939Z,45
2023-05-13T10:36:14.008Z,32
2023-05-13T10:37:31.066Z,44
2023-05-13T10:38:48.160Z,31
2023-05-13T10:40:05.650Z,41
2023-05-13T10:41:20.221Z,34
2023-05-13T10:42:40.698Z,38
2023-05-13T10:43:47.684Z,40
2023-05-13T10:44:54.726Z,44
2023-05-13T10:46:05.165Z,28
2023-05-13T10:47:12.201Z,33
2023-05-13T10:48:19.204Z,25
2023-05-13T10:49:29.755Z,33
2023-05-13T10:50:36.765Z,42
2023-05-13T10:51:43.738Z,28
2023-05-13T10:52:54.842Z,39
2023-05-13T10:54:02.542Z,37
2023-05-13T10:55:10.756Z,33
2023-05-13T10:56:20.355Z,32
2023-05-13T10:57:27.863Z,36
2023-05-13T10:58:42.476Z,41
2023-05-13T10:59:50.608Z,33
2023-05-13T11:01:01.455Z,26
2023-05-13T11:02:23.023Z,55
2023-05-13T11:03:30.050Z,47
2023-05-13T11:04:36.993Z,38
2023-05-13T11:05:44.006Z,46
2023-05-13T11:06:53.941Z,44
2023-05-13T11:08:01.074Z,43
2023-05-13T11:09:08.290Z,29
2023-05-13T11:10:15.453Z,28
2023-05-13T11:11:27.580Z,44
2023-05-13T11:12:39.916Z,41
2023-05-13T11:13:50.993Z,29
2023-05-13T11:15:00.222Z,44
2023-05-13T11:16:08.158Z,39
2023-05-13T11:17:15.342Z,35
2023-05-13T11:18:25.440Z,27
2023-05-13T11:19:35.903Z,29
2023-05-13T11:20:51.977Z,31
2023-05-13T11:21:51.878Z,32
2023-05-13T11:23:04.113Z,27
2023-05-13T11:24:11.056Z,30
2023-05-13T11:25:18.130Z,25
2023-05-13T11:26:27.762Z,28
2023-05-13T11:27:40.210Z,28
2023-05-13T11:28:48.395Z,30
2023-05-13T11:29:58.572Z,36
2023-05-13T11:31:05.575Z,32
2023-05-13T11:32:20.212Z,35
2023-05-13T11:33:38.063Z,39
2023-05-13T11:34:55.291Z,32
2023-05-13T11:36:02.391Z,30
2023-05-13T11:37:11.797Z,32
2023-05-13T11:38:22.688Z,28
2023-05-13T11:39:32.030Z,33
2023-05-13T11:40:39.984Z,38
2023-05-13T11:41:47.857Z,25
2023-05-13T11:42:55.013Z,25
2023-05-13T11:44:02.315Z,37
2023-05-13T11:45:15.391Z,34
2023-05-13T11:46:25.695Z,25
2023-05-13T11:47:32.812Z,31
2023-05-13T11:48:43.397Z,33
2023-05-13T11:49:50.326Z,30
2023-05-13T11:50:57.533Z,25
2023-05-13T11:52:04.480Z,29
2023-05-13T11:53:14.015Z,31
2023-05-13T11:54:26.812Z,30
2023-05-13T11:55:33.695Z,29
2023-05-13T11:56:40.697Z,31
2023-05-13T11:57:49.756Z,31
2023-05-13T11:58:56.760Z,36
2023-05-13T12:00:13.842Z,31
2023-05-13T12:01:20.996Z,25
2023-05-13T12:02:28.093Z,42
2023-05-13T12:03:35.260Z,37
2023-05-13T12:04:42.582Z,46
2023-05-13T12:05:49.476Z,25
2023-05-13T12:06:56.418Z,26
2023-05-13T12:08:03.806Z,33
2023-05-13T12:09:13.574Z,33
2023-05-13T12:10:20.660Z,30
2023-05-13T12:11:31.230Z,34
2023-05-13T12:12:38.281Z,29
2023-05-13T12:13:48.472Z,31
2023-05-13T12:14:55.551Z,39
2023-05-13T12:16:02.780Z,32
2023-05-13T12:17:09.837Z,33
2023-05-13T12:18:20.911Z,42
2023-05-13T12:19:30.030Z,29
2023-05-13T12:20:37.358Z,33
2023-05-13T12:21:44.398Z,33
2023-05-13T12:22:51.846Z,28
2023-05-13T12:23:59.091Z,28
2023-05-13T12:25:06.142Z,26
2023-05-13T12:26:28.330Z,31
2023-05-13T12:27:36.151Z,25
2023-05-13T12:28:43.347Z,50
2023-05-13T12:29:54.221Z,42
2023-05-13T12:31:01.486Z,41
2023-05-13T12:32:08.501Z,33
2023-05-13T12:33:15.488Z,25
2023-05-13T12:34:27.679Z,41
2023-05-13T12:35:37.313Z,28
2023-05-13T12:36:44.499Z,35
2023-05-13T12:37:51.607Z,29
2023-05-13T12:39:01.791Z,25
2023-05-13T12:40:08.854Z,35
2023-05-13T12:41:16.041Z,40
2023-05-13T12:42:23.097Z,35
2023-05-13T12:43:30.229Z,51
2023-05-13T12:44:42.095Z,32
2023-05-13T12:45:49.128Z,33
2023-05-13T12:46:56.264Z,29
2023-05-13T12:48:04.231Z,33
2023-05-13T12:49:11.355Z,33
2023-05-13T12:50:18.796Z,36
2023-05-13T12:51:25.896Z,44
2023-05-13T12:52:36.373Z,35
2023-05-13T12:53:46.383Z,36
2023-05-13T12:54:53.462Z,29
2023-05-13T12:56:00.568Z,36
2023-05-13T12:57:08.132Z,25
2023-05-13T12:58:15.271Z,42
2023-05-13T12:59:24.136Z,47
2023-05-13T13:00:33.729Z,41
2023-05-13T13:01:42.731Z,65
2023-05-13T13:02:49.406Z,32
2023-05-13T13:03:59.130Z,39
2023-05-13T13:05:05.993Z,36
2023-05-13T13:06:14.549Z,26
2023-05-13T13:07:21.628Z,37
2023-05-13T13:08:30.389Z,31
2023-05-13T13:09:36.004Z,35
2023-05-13T13:10:43.177Z,31
2023-05-13T13:11:50.289Z,44
2023-05-13T13:12:57.466Z,37
2023-05-13T13:14:07.760Z,33
2023-05-13T13:15:14.942Z,35
2023-05-13T13:16:22.227Z,29
2023-05-13T13:17:29.180Z,34
2023-05-13T13:18:37.279Z,38
2023-05-13T13:19:44.219Z,40
2023-05-13T13:20:57.063Z,34
2023-05-13T13:22:04.382Z,37
2023-05-13T13:23:22.266Z,32
2023-05-13T13:24:29.316Z,38
2023-05-13T13:25:36.221Z,35
2023-05-13T13:26:43.268Z,37
2023-05-13T13:27:50.503Z,37
2023-05-13T13:28:57.552Z,56
2023-05-13T13:30:05.087Z,36
2023-05-13T13:31:12.218Z,35
2023-05-13T13:32:19.310Z,44
2023-05-13T13:33:26.403Z,30
2023-05-13T13:34:33.518Z,33
2023-05-13T13:35:41.941Z,33
2023-05-13T13:36:53.743Z,36
2023-05-13T13:38:00.768Z,49
2023-05-13T13:39:07.945Z,42
2023-05-13T13:40:15.003Z,32
2023-05-13T13:41:22.520Z,44
2023-05-13T13:42:43.114Z,43
2023-05-13T13:43:39.559Z,39
2023-05-13T13:44:46.596Z,35
2023-05-13T13:45:53.773Z,38
2023-05-13T13:47:00.638Z,37
2023-05-13T13:48:08.086Z,40
2023-05-13T13:49:22.964Z,36
2023-05-13T13:50:22.620Z,37
2023-05-13T13:51:29.490Z,34
2023-05-13T13:52:39.259Z,25
2023-05-13T13:53:46.876Z,37
2023-05-13T13:54:53.930Z,30
2023-05-13T13:56:01.060Z,39
2023-05-13T13:57:08.133Z,38
2023-05-13T13:58:15.940Z,25
2023-05-13T13:59:26.932Z,25
2023-05-13T14:00:34.010Z,36
2023-05-13T14:01:41.658Z,38
2023-05-13T14:02:49.114Z,41
2023-05-13T14:03:56.441Z,43
2023-05-13T14:05:13.251Z,38
2023-05-13T14:06:20.875Z,38
2023-05-13T14:07:28.081Z,48
2023-05-13T14:08:35.214Z,48
2023-05-13T14:09:42.319Z,35
2023-05-13T14:10:49.352Z,54
2023-05-13T14:11:56.373Z,50
2023-05-13T14:13:35.536Z,43
2023-05-13T14:14:42.519Z,53
2023-05-13T14:15:49.721Z,48
2023-05-13T14:16:56.745Z,53
2023-05-13T14:18:03.756Z,52
2023-05-13T14:19:10.892Z,41
2023-05-13T14:20:17.921Z,40
2023-05-13T14:21:28.688Z,40
2023-05-13T14:22:35.664Z,40
2023-05-13T14:23:42.724Z,31
2023-05-13T14:24:49.707Z,44
2023-05-13T14:25:56.733Z,45
2023-05-13T14:27:03.822Z,40
2023-05-13T14:28:10.821Z,42
2023-05-13T14:29:17.853Z,31
2023-05-13T14:30:25.091Z,31
2023-05-13T14:31:31.977Z,28
2023-05-13T14:32:38.951Z,32
2023-05-13T14:33:45.981Z,41
2023-05-13T14:34:53.005Z,35
2023-05-13T14:36:04.187Z,45
2023-05-13T14:37:11.344Z,35
2023-05-13T14:38:18.358Z,29
2023-05-13T14:39:25.397Z,31
2023-05-13T14:40:35.510Z,32
2023-05-13T14:41:42.565Z,32
2023-05-13T14:42:49.634Z,38
2023-05-13T14:43:56.562Z,30
2023-05-13T14:45:05.051Z,29
2023-05-13T14:46:12.217Z,36
2023-05-13T14:47:19.215Z,33
2023-05-13T14:48:26.274Z,34
2023-05-13T14:49:33.290Z,28
2023-05-13T14:50:41.980Z,34
2023-05-13T14:51:47.774Z,42
2023-05-13T14:52:54.750Z,35
2023-05-13T14:54:01.790Z,39
2023-05-13T14:55:13.149Z,38
2023-05-13T14:56:20.241Z,40
2023-05-13T14:57:27.324Z,36
2023-05-13T14:58:34.368Z,41
2023-05-13T14:59:41.377Z,43
2023-05-13T15:00:48.494Z,55
2023-05-13T15:01:55.671Z,45
2023-05-13T15:03:07.067Z,38
2023-05-13T15:04:14.191Z,30
2023-05-13T15:05:21.291Z,42
2023-05-13T15:06:28.270Z,38
2023-05-13T15:07:35.337Z,48
2023-05-13T15:08:42.382Z,47
2023-05-13T15:09:54.183Z,35
2023-05-13T15:11:01.303Z,33
2023-05-13T15:12:11.478Z,33
2023-05-13T15:13:18.554Z,44
2023-05-13T15:14:28.271Z,30
2023-05-13T15:15:35.386Z,40
2023-05-13T15:16:42.514Z,36
2023-05-13T15:17:49.718Z,39
2023-05-13T15:18:56.784Z,34
2023-05-13T15:20:05.596Z,31
2023-05-13T15:21:13.531Z,43
2023-05-13T15:22:20.584Z,38
2023-05-13T15:23:27.517Z,29
2023-05-13T15:24:37.606Z,44
2023-05-13T15:25:44.555Z,40
2023-05-13T15:26:51.709Z,40
2023-05-13T15:27:58.796Z,38
2023-05-13T15:29:05.810Z,43
2023-05-13T15:30:12.850Z,53
2023-05-13T15:31:19.902Z,47
2023-05-13T15:32:26.954Z,41
2023-05-13T15:33:33.954Z,34
2023-05-13T15:34:41.078Z,30
2023-05-13T15:35:50.904Z,42
2023-05-13T15:36:57.908Z,39
2023-05-13T15:38:04.878Z,36
2023-05-13T15:39:11.909Z,37
2023-05-13T15:40:21.360Z,41
2023-05-13T15:41:33.576Z,38
2023-05-13T15:42:40.593Z,50
2023-05-13T15:43:50.369Z,43
2023-05-13T15:44:58.462Z,37
2023-05-13T15:46:05.537Z,48
2023-05-13T15:47:12.691Z,45
2023-05-13T15:48:19.638Z,44
2023-05-13T15:49:26.636Z,39
2023-05-13T15:50:33.701Z,38
2023-05-13T15:51:45.785Z,40
2023-05-13T15:52:57.292Z,36
2023-05-13T15:54:09.502Z,35
2023-05-13T15:55:16.489Z,37
2023-05-13T15:56:23.494Z,36
2023-05-13T15:57:30.516Z,30
2023-05-13T15:58:37.537Z,46
2023-05-13T15:59:44.586Z,42
2023-05-13T16:00:57.118Z,36
2023-05-13T16:02:05.376Z,40
2023-05-13T16:03:12.266Z,31
2023-05-13T16:04:19.299Z,35
2023-05-13T16:05:26.302Z,38
2023-05-13T16:06:33.421Z,38
2023-05-13T16:07:48.319Z,35
2023-05-13T16:08:56.491Z,45
2023-05-13T16:10:03.144Z,48
2023-05-13T16:11:10.257Z,52
2023-05-13T16:12:17.208Z,57
2023-05-13T16:13:24.204Z,49
2023-05-13T16:14:31.168Z,47
2023-05-13T16:15:38.234Z,44
2023-05-13T16:16:45.281Z,51
2023-05-13T16:17:52.213Z,47
2023-05-13T16:18:59.260Z,40
2023-05-13T16:20:06.264Z,33
2023-05-13T16:21:17.856Z,39
2023-05-13T16:22:30.134Z,46
2023-05-13T16:23:37.155Z,35
2023-05-13T16:24:44.101Z,38
2023-05-13T16:25:51.152Z,44
2023-05-13T16:26:58.150Z,47
2023-05-13T16:28:05.166Z,57